createdAt,value
2022-07-26T00:01:20.702Z,21.58
2022-07-26T00:03:50.625Z,21.25
2022-07-26T00:06:19.665Z,23.65
2022-07-26T00:08:48.312Z,20.30
2022-07-26T00:11:19.080Z,19.30
2022-07-26T00:13:48.031Z,19.00
2022-07-26T00:16:16.599Z,19.27
2022-07-26T00:18:45.399Z,21.55
2022-07-26T00:21:13.787Z,18.23
2022-07-26T00:23:41.998Z,18.50
2022-07-26T00:26:10.631Z,21.20
2022-07-26T00:28:41.881Z,26.50
2022-07-26T00:31:11.933Z,19.13
2022-07-26T00:33:41.007Z,17.58
2022-07-26T00:36:10.081Z,16.02
2022-07-26T00:38:38.412Z,12.43
2022-07-26T00:41:07.199Z,9.13
2022-07-26T00:43:35.998Z,9.50
2022-07-26T00:46:05.961Z,12.07
2022-07-26T00:48:34.165Z,9.80
2022-07-26T00:51:02.466Z,10.10
2022-07-26T00:53:30.893Z,8.52
2022-07-26T00:55:59.569Z,7.75
2022-07-26T00:58:27.738Z,7.65
2022-07-26T01:00:55.921Z,6.60
2022-07-26T01:03:29.081Z,7.60
2022-07-26T01:05:58.617Z,9.93
2022-07-26T01:08:26.895Z,9.18
2022-07-26T01:10:55.689Z,7.43
2022-07-26T01:13:24.530Z,6.47
2022-07-26T01:15:52.871Z,9.82
2022-07-26T01:18:21.136Z,6.07
2022-07-26T01:20:51.803Z,11.02
2022-07-26T01:23:21.658Z,6.30
2022-07-26T01:25:50.011Z,7.75
2022-07-26T01:28:20.552Z,7.85
2022-07-26T01:30:49.763Z,7.43
2022-07-26T01:33:18.030Z,6.00
2022-07-26T01:35:46.279Z,7.10
2022-07-26T01:38:14.848Z,6.18
2022-07-26T01:40:44.396Z,6.80
2022-07-26T01:43:12.584Z,6.90
2022-07-26T01:45:40.975Z,9.45
2022-07-26T01:48:09.623Z,9.02
2022-07-26T01:50:38.512Z,10.38
2022-07-26T01:53:06.938Z,11.02
2022-07-26T01:55:35.534Z,8.30
2022-07-26T01:58:06.192Z,7.35
2022-07-26T02:00:35.393Z,7.35
2022-07-26T02:03:04.046Z,7.38
2022-07-26T02:05:32.422Z,10.15
2022-07-26T02:08:00.689Z,6.53
2022-07-26T02:10:50.107Z,8.80
2022-07-26T02:13:20.046Z,6.75
2022-07-26T02:15:48.733Z,8.48
2022-07-26T02:18:17.088Z,9.63
2022-07-26T02:20:45.539Z,11.07
2022-07-26T02:23:14.268Z,10.25
2022-07-26T02:25:42.487Z,11.65
2022-07-26T02:28:10.722Z,8.07
2022-07-26T02:30:40.732Z,10.90
2022-07-26T02:33:08.961Z,9.63
2022-07-26T02:35:37.977Z,7.60
2022-07-26T02:38:08.663Z,11.63
2022-07-26T02:40:39.206Z,7.55
2022-07-26T02:43:09.403Z,12.90
2022-07-26T02:45:39.687Z,10.05
2022-07-26T02:48:09.068Z,11.98
2022-07-26T02:50:37.335Z,9.73
2022-07-26T02:53:05.965Z,9.57
2022-07-26T02:55:34.273Z,9.25
2022-07-26T02:58:02.539Z,9.88
2022-07-26T03:00:31.439Z,8.90
2022-07-26T03:03:01.231Z,8.68
2022-07-26T03:05:29.673Z,9.73
2022-07-26T03:07:58.310Z,7.82
2022-07-26T03:10:26.470Z,12.60
2022-07-26T03:12:54.960Z,8.93
2022-07-26T03:15:23.225Z,8.32
2022-07-26T03:17:51.507Z,10.77
2022-07-26T03:20:21.146Z,10.20
2022-07-26T03:22:49.645Z,12.50
2022-07-26T03:25:18.023Z,10.02
2022-07-26T03:27:46.177Z,10.57
2022-07-26T03:30:15.589Z,9.95
2022-07-26T03:32:44.093Z,8.68
2022-07-26T03:35:13.848Z,10.80
2022-07-26T03:37:43.552Z,11.50
2022-07-26T03:40:15.761Z,9.75
2022-07-26T03:42:44.194Z,13.23
2022-07-26T03:45:14.438Z,11.38
2022-07-26T03:47:43.596Z,12.38
2022-07-26T03:50:13.986Z,9.05
2022-07-26T03:52:43.745Z,9.55
2022-07-26T03:55:29.955Z,9.52
2022-07-26T03:57:59.166Z,11.65
2022-07-26T04:00:27.717Z,12.10
2022-07-26T04:02:56.277Z,14.95
2022-07-26T04:05:26.025Z,10.55
2022-07-26T04:07:56.019Z,8.73
2022-07-26T04:10:24.863Z,8.07
2022-07-26T04:12:53.192Z,7.25
2022-07-26T04:15:21.573Z,12.65
2022-07-26T04:17:50.297Z,10.35
2022-07-26T04:20:19.093Z,9.45
2022-07-26T04:22:47.470Z,10.95
2022-07-26T04:25:17.126Z,8.35
2022-07-26T04:27:45.325Z,12.95
2022-07-26T04:30:15.651Z,11.63
2022-07-26T04:32:45.877Z,9.77
2022-07-26T04:35:16.724Z,10.02
2022-07-26T04:37:46.680Z,10.60
2022-07-26T04:40:21.797Z,9.27
2022-07-26T04:42:52.904Z,10.88
2022-07-26T04:45:22.331Z,9.95
2022-07-26T04:47:51.974Z,13.43
2022-07-26T04:50:22.960Z,10.30
2022-07-26T04:52:52.535Z,10.95
2022-07-26T04:55:23.934Z,11.40
2022-07-26T04:57:52.873Z,8.30
2022-07-26T05:00:24.938Z,9.43
2022-07-26T05:02:55.861Z,11.50
2022-07-26T05:05:26.249Z,11.93
2022-07-26T05:07:58.236Z,9.15
2022-07-26T05:10:35.143Z,12.77
2022-07-26T05:13:05.574Z,12.15
2022-07-26T05:15:35.918Z,10.00
2022-07-26T05:18:08.059Z,10.77
2022-07-26T05:20:37.713Z,10.52
2022-07-26T05:23:06.231Z,9.07
2022-07-26T05:25:36.581Z,13.10
2022-07-26T05:28:05.410Z,11.85
2022-07-26T05:30:34.058Z,9.38
2022-07-26T05:33:02.598Z,8.90
2022-07-26T05:35:30.852Z,11.15
2022-07-26T05:37:59.344Z,10.60
2022-07-26T05:40:27.765Z,10.23
2022-07-26T05:42:57.589Z,8.88
2022-07-26T05:45:25.936Z,7.45
2022-07-26T05:47:55.666Z,9.88
2022-07-26T05:50:24.390Z,11.10
2022-07-26T05:52:52.645Z,6.30
2022-07-26T05:55:21.133Z,7.13
2022-07-26T05:57:49.659Z,4.93
2022-07-26T06:00:20.911Z,4.68
2022-07-26T06:02:49.207Z,3.85
2022-07-26T06:05:17.707Z,3.40
2022-07-26T06:07:46.140Z,3.17
2022-07-26T06:10:15.317Z,3.72
2022-07-26T06:12:43.610Z,1.90
2022-07-26T06:15:15.230Z,3.55
2022-07-26T06:17:45.350Z,3.90
2022-07-26T06:20:13.923Z,2.05
2022-07-26T06:22:42.076Z,3.35
2022-07-26T06:25:11.002Z,4.57
2022-07-26T06:27:39.176Z,2.75
2022-07-26T06:30:10.372Z,3.45
2022-07-26T06:32:38.592Z,4.68
2022-07-26T06:35:09.112Z,5.68
2022-07-26T06:37:38.878Z,3.35
2022-07-26T06:40:09.290Z,6.72
2022-07-26T06:42:38.010Z,5.07
2022-07-26T06:45:08.016Z,6.35
2022-07-26T06:47:36.632Z,6.90
2022-07-26T06:50:07.580Z,6.10
2022-07-26T06:52:35.964Z,6.00
2022-07-26T06:55:05.505Z,6.68
2022-07-26T06:57:33.799Z,9.15
2022-07-26T07:00:15.058Z,9.10
2022-07-26T07:02:43.235Z,7.43
2022-07-26T07:05:13.035Z,9.75
2022-07-26T07:07:42.755Z,6.60
2022-07-26T07:10:12.741Z,7.75
2022-07-26T07:12:41.796Z,6.78
2022-07-26T07:15:11.351Z,6.32
2022-07-26T07:17:39.945Z,8.38
2022-07-26T07:20:09.175Z,7.68
2022-07-26T07:22:38.966Z,9.20
2022-07-26T07:25:07.761Z,6.32
2022-07-26T07:27:37.112Z,6.70
2022-07-26T07:30:06.730Z,8.68
2022-07-26T07:32:36.072Z,8.05
2022-07-26T07:35:04.503Z,10.15
2022-07-26T07:37:53.493Z,8.02
2022-07-26T07:40:23.480Z,7.25
2022-07-26T07:42:51.811Z,7.53
2022-07-26T07:45:20.424Z,7.30
2022-07-26T07:47:48.613Z,8.35
2022-07-26T07:50:16.799Z,6.55
2022-07-26T07:52:47.800Z,7.60
2022-07-26T07:55:40.428Z,8.38
2022-07-26T07:58:04.958Z,8.52
2022-07-26T08:00:33.573Z,8.05
2022-07-26T08:03:02.021Z,7.43
2022-07-26T08:05:30.227Z,7.55
2022-07-26T08:07:59.825Z,9.10
2022-07-26T08:10:29.357Z,7.97
2022-07-26T08:12:57.576Z,8.65
2022-07-26T08:15:27.450Z,8.60
2022-07-26T08:17:55.785Z,10.20
2022-07-26T08:20:25.136Z,6.88
2022-07-26T08:22:53.734Z,4.93
2022-07-26T08:25:23.992Z,7.93
2022-07-26T08:28:15.496Z,7.63
2022-07-26T08:30:41.070Z,5.97
2022-07-26T08:33:09.429Z,4.13
2022-07-26T08:35:37.662Z,4.03
2022-07-26T08:38:05.969Z,5.72
2022-07-26T08:40:36.089Z,5.53
2022-07-26T08:43:04.873Z,6.30
2022-07-26T08:45:33.673Z,4.75
2022-07-26T08:48:18.673Z,7.40
2022-07-26T08:50:47.542Z,7.70
2022-07-26T08:53:16.834Z,6.53
2022-07-26T08:58:36.749Z,6.55
2022-07-26T09:01:13.316Z,6.93
2022-07-26T09:03:42.758Z,6.72
2022-07-26T09:06:17.939Z,5.78
2022-07-26T09:08:48.529Z,4.40
2022-07-26T09:11:42.543Z,8.63
2022-07-26T09:14:10.804Z,7.47
2022-07-26T09:16:40.157Z,6.93
2022-07-26T09:19:23.686Z,4.95
2022-07-26T09:21:53.261Z,6.03
2022-07-26T09:24:35.977Z,11.13
2022-07-26T09:27:08.098Z,8.00
2022-07-26T09:29:48.271Z,6.45
2022-07-26T09:32:19.781Z,7.57
2022-07-26T09:34:58.351Z,6.78
2022-07-26T09:37:37.338Z,6.28
2022-07-26T09:40:09.745Z,9.75
2022-07-26T09:42:40.694Z,7.05
2022-07-26T09:45:18.330Z,6.90
2022-07-26T09:47:46.801Z,4.82
2022-07-26T09:50:17.655Z,6.53
2022-07-26T09:53:10.569Z,5.57
2022-07-26T09:55:57.191Z,4.32
2022-07-26T09:58:28.813Z,5.68
2022-07-26T10:01:02.234Z,4.55
2022-07-26T10:03:32.779Z,5.85
2022-07-26T10:06:01.576Z,4.90
2022-07-26T10:08:30.921Z,6.15
2022-07-26T10:11:07.899Z,6.60
2022-07-26T10:13:38.723Z,6.03
2022-07-26T10:16:07.988Z,7.07
2022-07-26T10:18:55.712Z,4.70
2022-07-26T10:21:26.821Z,5.90
2022-07-26T10:23:58.231Z,9.30
2022-07-26T10:26:45.575Z,7.22
2022-07-26T10:29:30.901Z,5.40
2022-07-26T10:32:20.340Z,6.45
2022-07-26T10:34:49.285Z,6.25
2022-07-26T10:37:29.775Z,8.63
2022-07-26T10:40:22.965Z,9.60
2022-07-26T10:42:51.570Z,5.03
2022-07-26T10:45:25.285Z,4.60
2022-07-26T10:48:18.714Z,5.07
2022-07-26T10:50:50.355Z,6.50
2022-07-26T10:53:23.340Z,6.95
2022-07-26T10:55:54.034Z,5.47
2022-07-26T10:58:24.217Z,4.50
2022-07-26T11:01:01.918Z,8.13
2022-07-26T11:03:41.504Z,3.85
2022-07-26T11:06:15.502Z,6.20
2022-07-26T11:08:48.080Z,7.18
2022-07-26T11:11:30.863Z,6.95
2022-07-26T11:14:10.271Z,6.70
2022-07-26T11:16:42.816Z,7.80
2022-07-26T11:19:16.880Z,5.68
2022-07-26T11:21:46.717Z,5.75
2022-07-26T11:24:15.312Z,4.68
2022-07-26T11:26:45.790Z,3.60
2022-07-26T11:29:17.559Z,3.90
2022-07-26T11:31:51.208Z,4.22
2022-07-26T11:34:30.041Z,5.18
2022-07-26T11:37:00.417Z,7.20
2022-07-26T11:39:31.159Z,3.97
2022-07-26T11:42:01.899Z,5.85
2022-07-26T11:44:31.513Z,5.53
2022-07-26T11:47:01.792Z,3.88
2022-07-26T11:52:25.641Z,5.10
2022-07-26T11:54:55.599Z,5.50
2022-07-26T11:57:29.590Z,5.20
2022-07-26T11:59:59.042Z,5.25
2022-07-26T12:02:30.108Z,7.80
2022-07-26T12:05:15.450Z,3.63
2022-07-26T12:07:56.960Z,4.68
2022-07-26T12:10:25.493Z,4.20
2022-07-26T12:13:12.814Z,3.58
2022-07-26T12:15:50.311Z,4.05
2022-07-26T12:18:39.242Z,3.70
2022-07-26T12:21:09.814Z,3.67
2022-07-26T12:23:46.638Z,4.40
2022-07-26T12:26:23.844Z,6.57
2022-07-26T12:28:52.599Z,6.53
2022-07-26T12:31:26.716Z,5.65
2022-07-26T12:33:56.895Z,7.15
2022-07-26T12:36:29.494Z,5.03
2022-07-26T12:39:00.082Z,5.88
2022-07-26T12:41:37.622Z,6.75
2022-07-26T12:44:06.808Z,8.13
2022-07-26T12:46:35.572Z,7.30
2022-07-26T12:49:06.251Z,8.40
2022-07-26T12:51:35.001Z,5.90
2022-07-26T12:54:06.692Z,10.68
2022-07-26T12:56:35.101Z,8.18
2022-07-26T12:59:03.375Z,6.22
2022-07-26T13:01:33.982Z,8.23
2022-07-26T13:04:02.435Z,6.47
2022-07-26T13:06:32.878Z,6.82
2022-07-26T13:09:01.337Z,8.25
2022-07-26T13:11:29.920Z,5.53
2022-07-26T13:13:58.237Z,7.55
2022-07-26T13:16:26.797Z,7.78
2022-07-26T13:18:55.059Z,6.88
2022-07-26T13:21:23.504Z,8.85
2022-07-26T13:23:53.461Z,6.70
2022-07-26T13:26:21.850Z,7.32
2022-07-26T13:28:50.731Z,6.35
2022-07-26T13:31:19.786Z,7.55
2022-07-26T13:33:48.371Z,6.25
2022-07-26T13:36:16.830Z,5.10
2022-07-26T13:38:45.331Z,6.05
2022-07-26T13:41:15.002Z,6.03
2022-07-26T13:43:44.210Z,7.40
2022-07-26T13:46:12.444Z,8.82
2022-07-26T13:48:52.707Z,5.95
2022-07-26T13:51:49.393Z,8.57
2022-07-26T13:54:19.321Z,6.00
2022-07-26T13:56:50.427Z,6.18
2022-07-26T13:59:19.501Z,7.53
2022-07-26T14:01:48.231Z,6.43
2022-07-26T14:04:16.965Z,7.65
2022-07-26T14:06:45.469Z,6.25
2022-07-26T14:09:14.757Z,6.20
2022-07-26T14:11:43.888Z,7.65
2022-07-26T14:14:14.171Z,6.72
2022-07-26T14:16:42.875Z,7.30
2022-07-26T14:19:15.253Z,10.30
2022-07-26T14:21:48.822Z,5.53
2022-07-26T14:24:28.421Z,7.53
2022-07-26T14:26:59.250Z,5.05
2022-07-26T14:29:29.546Z,10.82
2022-07-26T14:31:58.019Z,4.93
2022-07-26T14:34:26.634Z,8.20
2022-07-26T14:36:55.175Z,5.85
2022-07-26T14:39:23.440Z,5.85
2022-07-26T14:41:51.739Z,6.28
2022-07-26T14:44:20.394Z,8.65
2022-07-26T14:46:50.125Z,7.32
2022-07-26T14:49:18.843Z,6.65
2022-07-26T14:51:47.999Z,7.10
2022-07-26T14:54:18.070Z,6.57
2022-07-26T14:56:46.384Z,5.35
2022-07-26T14:59:15.061Z,9.82
2022-07-26T15:01:43.371Z,6.55
2022-07-26T15:04:13.327Z,6.10
2022-07-26T15:06:41.964Z,6.50
2022-07-26T15:09:10.596Z,5.55
2022-07-26T15:11:38.825Z,6.95
2022-07-26T15:14:07.076Z,7.03
2022-07-26T15:16:35.522Z,5.18
2022-07-26T15:19:03.803Z,5.60
2022-07-26T15:21:33.567Z,5.97
2022-07-26T15:24:02.587Z,4.57
2022-07-26T15:26:30.763Z,5.28
2022-07-26T15:28:58.944Z,5.88
2022-07-26T15:31:36.572Z,7.20
2022-07-26T15:34:05.439Z,6.28
2022-07-26T15:36:35.296Z,6.28
2022-07-26T15:39:15.917Z,7.93
2022-07-26T15:41:44.829Z,7.03
2022-07-26T15:44:13.844Z,6.35
2022-07-26T15:46:45.677Z,7.00
2022-07-26T15:49:15.103Z,6.65
2022-07-26T15:51:45.709Z,5.45
2022-07-26T15:54:16.165Z,6.10
2022-07-26T15:56:45.129Z,7.32
2022-07-26T15:59:13.483Z,9.63
2022-07-26T16:01:41.943Z,8.20
2022-07-26T16:04:10.793Z,5.65
2022-07-26T16:06:39.473Z,5.55
2022-07-26T16:09:18.628Z,4.22
2022-07-26T16:11:48.159Z,5.70
2022-07-26T16:14:16.849Z,5.80
2022-07-26T16:16:46.130Z,6.18
2022-07-26T16:19:15.141Z,6.82
2022-07-26T16:21:43.775Z,6.40
2022-07-26T16:24:13.718Z,6.68
2022-07-26T16:26:43.592Z,5.03
2022-07-26T16:29:12.232Z,4.05
2022-07-26T16:31:42.099Z,7.15
2022-07-26T16:34:11.053Z,7.72
2022-07-26T16:36:40.038Z,6.10
2022-07-26T16:39:08.913Z,6.05
2022-07-26T16:41:38.996Z,5.60
2022-07-26T16:44:07.486Z,8.10
2022-07-26T16:46:36.053Z,6.78
2022-07-26T16:49:04.982Z,5.35
2022-07-26T16:51:33.404Z,6.90
2022-07-26T16:54:01.648Z,5.65
2022-07-26T16:56:29.852Z,5.47
2022-07-26T16:59:00.915Z,5.50
2022-07-26T17:01:29.398Z,4.43
2022-07-26T17:03:57.909Z,5.88
2022-07-26T17:06:26.233Z,5.07
2022-07-26T17:08:55.314Z,5.78
2022-07-26T17:11:23.805Z,6.32
2022-07-26T17:13:53.480Z,6.18
2022-07-26T17:16:24.373Z,7.35
2022-07-26T17:18:53.887Z,6.15
2022-07-26T17:21:22.265Z,5.60
2022-07-26T17:23:50.653Z,5.35
2022-07-26T17:26:19.535Z,6.60
2022-07-26T17:28:47.835Z,5.13
2022-07-26T17:31:16.411Z,4.60
2022-07-26T17:33:46.082Z,4.75
2022-07-26T17:36:23.915Z,10.18
2022-07-26T17:38:52.696Z,4.53
2022-07-26T17:41:23.689Z,6.72
2022-07-26T17:44:02.910Z,4.45
2022-07-26T17:46:32.705Z,6.60
2022-07-26T17:49:03.396Z,4.32
2022-07-26T17:51:31.692Z,4.50
2022-07-26T17:54:00.622Z,4.00
2022-07-26T17:56:29.064Z,4.20
2022-07-26T17:58:57.987Z,4.88
2022-07-26T18:01:26.594Z,5.53
2022-07-26T18:03:54.883Z,3.83
2022-07-26T18:06:24.910Z,5.65
2022-07-26T18:08:53.187Z,3.92
2022-07-26T18:11:21.643Z,4.80
2022-07-26T18:13:49.931Z,3.80
2022-07-26T18:16:18.848Z,3.85
2022-07-26T18:18:47.205Z,4.57
2022-07-26T18:21:15.873Z,5.80
2022-07-26T18:24:06.621Z,6.65
2022-07-26T18:26:34.077Z,4.38
2022-07-26T18:29:02.395Z,5.50
2022-07-26T18:31:30.650Z,4.57
2022-07-26T18:34:01.861Z,6.95
2022-07-26T18:36:34.316Z,5.13
2022-07-26T18:39:04.561Z,4.70
2022-07-26T18:41:32.883Z,5.95
2022-07-26T18:44:03.523Z,6.68
2022-07-26T18:46:31.831Z,5.15
2022-07-26T18:49:07.257Z,4.18
2022-07-26T18:51:35.667Z,5.43
2022-07-26T18:54:05.798Z,3.33
2022-07-26T18:56:34.409Z,5.75
2022-07-26T18:59:03.809Z,6.07
2022-07-26T19:01:32.332Z,5.80
2022-07-26T19:04:06.179Z,6.63
2022-07-26T19:06:35.778Z,5.22
2022-07-26T19:09:06.472Z,7.20
2022-07-26T19:11:37.499Z,6.13
2022-07-26T19:14:06.359Z,4.15
2022-07-26T19:16:34.701Z,5.43
2022-07-26T19:19:02.976Z,7.53
2022-07-26T19:21:31.659Z,5.95
2022-07-26T19:23:59.905Z,5.30
2022-07-26T19:26:30.696Z,5.80
2022-07-26T19:28:59.254Z,4.38
2022-07-26T19:31:27.851Z,6.75
2022-07-26T19:33:56.130Z,6.82
2022-07-26T19:36:25.935Z,3.50
2022-07-26T19:38:55.778Z,3.10
2022-07-26T19:41:24.760Z,4.47
2022-07-26T19:43:54.319Z,4.25
2022-07-26T19:46:22.945Z,7.00
2022-07-26T19:48:52.290Z,5.40
2022-07-26T19:51:20.562Z,5.63
2022-07-26T19:53:49.077Z,5.97
2022-07-26T19:56:17.364Z,5.80
2022-07-26T19:58:46.789Z,6.15
2022-07-26T20:01:16.892Z,3.92
2022-07-26T20:03:45.267Z,4.38
2022-07-26T20:06:13.659Z,5.47
2022-07-26T20:08:42.173Z,7.53
2022-07-26T20:11:11.124Z,5.47
2022-07-26T20:13:39.496Z,5.97
2022-07-26T20:16:07.643Z,3.90
2022-07-26T20:18:37.713Z,4.95
2022-07-26T20:21:06.005Z,5.95
2022-07-26T20:23:34.313Z,4.00
2022-07-26T20:26:02.797Z,4.40
2022-07-26T20:28:31.065Z,7.97
2022-07-26T20:30:59.463Z,5.60
2022-07-26T20:33:27.743Z,4.47
2022-07-26T20:35:57.350Z,4.47
2022-07-26T20:38:25.738Z,5.70
2022-07-26T20:40:54.401Z,5.18
2022-07-26T20:43:22.721Z,5.00
2022-07-26T20:45:51.295Z,6.85
2022-07-26T20:48:20.258Z,3.75
2022-07-26T20:50:49.264Z,4.90
2022-07-26T20:53:19.100Z,4.93
2022-07-26T20:55:47.374Z,6.45
2022-07-26T20:58:18.116Z,6.90
2022-07-26T21:00:46.503Z,4.18
2022-07-26T21:03:16.807Z,5.72
2022-07-26T21:05:45.159Z,5.15
2022-07-26T21:08:13.658Z,5.20
2022-07-26T21:10:45.949Z,4.50
2022-07-26T21:13:14.418Z,3.05
2022-07-26T21:15:43.162Z,3.00
2022-07-26T21:18:12.348Z,5.28
2022-07-26T21:20:41.801Z,4.93
2022-07-26T21:23:17.288Z,5.05
2022-07-26T21:25:47.899Z,6.25
2022-07-26T21:28:16.712Z,5.18
2022-07-26T21:30:45.054Z,4.50
2022-07-26T21:33:13.694Z,3.80
2022-07-26T21:35:42.663Z,4.43
2022-07-26T21:38:11.236Z,5.05
2022-07-26T21:40:39.528Z,8.30
2022-07-26T21:43:09.285Z,6.57
2022-07-26T21:45:37.575Z,7.82
2022-07-26T21:48:06.265Z,6.72
2022-07-26T21:50:34.486Z,6.35
2022-07-26T21:53:02.750Z,8.25
2022-07-26T21:55:30.949Z,4.18
2022-07-26T21:57:59.167Z,4.40
2022-07-26T22:00:28.853Z,4.40
2022-07-26T22:02:57.083Z,4.18
2022-07-26T22:05:38.883Z,4.10
2022-07-26T22:08:08.266Z,5.57
2022-07-26T22:10:42.106Z,6.18
2022-07-26T22:13:13.055Z,7.13
2022-07-26T22:15:43.765Z,3.22
2022-07-26T22:18:12.450Z,4.35
2022-07-26T22:20:41.070Z,5.05
2022-07-26T22:23:11.828Z,4.03
2022-07-26T22:25:41.290Z,7.13
2022-07-26T22:28:11.679Z,6.65
2022-07-26T22:30:42.974Z,4.47
2022-07-26T22:33:11.859Z,7.20
2022-07-26T22:35:40.308Z,6.43
2022-07-26T22:38:11.938Z,7.22
2022-07-26T22:40:42.675Z,7.00
2022-07-26T22:43:11.894Z,9.23
2022-07-26T22:45:40.227Z,6.97
2022-07-26T22:48:10.405Z,6.38
2022-07-26T22:50:39.024Z,4.93
2022-07-26T22:53:07.517Z,5.47
2022-07-26T22:55:36.220Z,7.03
2022-07-26T22:58:04.481Z,6.25
2022-07-26T23:00:32.966Z,6.45
2022-07-26T23:03:01.402Z,8.13
2022-07-26T23:05:39.910Z,6.63
2022-07-26T23:08:44.316Z,7.30
2022-07-26T23:11:03.355Z,5.13
2022-07-26T23:13:31.571Z,6.85
2022-07-26T23:16:01.226Z,4.82
2022-07-26T23:18:30.666Z,3.78
2022-07-26T23:21:00.689Z,4.82
2022-07-26T23:23:30.221Z,4.03
2022-07-26T23:25:59.820Z,5.32
2022-07-26T23:28:37.601Z,6.20
2022-07-26T23:31:08.657Z,3.42
2022-07-26T23:33:52.408Z,3.67
2022-07-26T23:36:28.797Z,4.18
2022-07-26T23:38:58.817Z,5.95
2022-07-26T23:41:28.463Z,3.67
2022-07-26T23:43:57.334Z,4.70
2022-07-26T23:46:26.551Z,4.10
2022-07-26T23:48:58.425Z,5.25
2022-07-26T23:51:28.669Z,5.80
2022-07-26T23:53:56.805Z,7.22
2022-07-26T23:56:25.269Z,10.98
2022-07-26T23:58:53.754Z,4.55
